createdAt,value
2023-03-30T00:03:55.643Z,36.10
2023-03-30T00:08:07.883Z,46.87
2023-03-30T00:12:11.127Z,40.00
2023-03-30T00:16:16.201Z,40.92
2023-03-30T00:20:20.700Z,40.37
2023-03-30T00:24:29.490Z,43.33
2023-03-30T00:28:45.262Z,45.30
2023-03-30T00:32:48.482Z,45.27
2023-03-30T00:36:54.605Z,47.27
2023-03-30T00:41:04.699Z,49.23
2023-03-30T00:45:20.058Z,42.57
2023-03-30T00:49:23.109Z,47.50
2023-03-30T00:53:37.128Z,48.87
2023-03-30T00:57:44.363Z,43.67
2023-03-30T01:01:50.177Z,45.90
2023-03-30T01:05:57.810Z,64.27
2023-03-30T01:10:06.033Z,53.63
2023-03-30T01:14:19.412Z,52.00
2023-03-30T01:18:37.623Z,50.73
2023-03-30T01:23:14.067Z,49.53
2023-03-30T01:27:50.576Z,45.00
2023-03-30T01:32:12.054Z,51.90
2023-03-30T01:36:41.888Z,46.83
2023-03-30T01:40:59.045Z,48.40
2023-03-30T01:45:11.467Z,58.22
2023-03-30T01:49:22.712Z,46.17
2023-03-30T01:53:32.042Z,57.03
2023-03-30T01:57:43.003Z,53.97
2023-03-30T02:01:54.564Z,52.80
2023-03-30T02:06:04.068Z,48.93
2023-03-30T02:10:10.868Z,46.50
2023-03-30T02:14:19.323Z,52.58
2023-03-30T02:18:22.579Z,52.63
2023-03-30T02:22:30.549Z,55.40
2023-03-30T02:26:38.711Z,53.83
2023-03-30T02:30:51.587Z,53.90
2023-03-30T02:35:18.960Z,51.97
2023-03-30T02:39:33.917Z,48.57
2023-03-30T02:43:47.157Z,53.13
2023-03-30T02:48:06.131Z,49.53
2023-03-30T02:52:16.378Z,51.70
2023-03-30T02:56:27.094Z,47.47
2023-03-30T03:04:46.623Z,40.20
2023-03-30T03:08:50.797Z,42.77
2023-03-30T03:12:53.827Z,44.40
2023-03-30T03:17:09.857Z,38.43
2023-03-30T03:21:15.466Z,42.53
2023-03-30T03:25:18.624Z,46.80
2023-03-30T03:29:25.568Z,41.53
2023-03-30T03:33:31.945Z,41.47
2023-03-30T03:37:37.704Z,44.97
2023-03-30T03:41:49.465Z,45.67
2023-03-30T03:45:54.515Z,42.60
2023-03-30T03:49:57.519Z,43.47
2023-03-30T03:54:02.208Z,41.30
2023-03-30T03:58:05.905Z,42.37
2023-03-30T04:02:08.996Z,40.13
2023-03-30T04:06:12.518Z,38.97
2023-03-30T04:10:18.177Z,50.08
2023-03-30T04:14:21.202Z,40.50
2023-03-30T04:18:24.343Z,39.75
2023-03-30T04:22:27.504Z,42.10
2023-03-30T04:26:33.800Z,39.87
2023-03-30T04:30:36.862Z,42.95
2023-03-30T04:34:54.841Z,40.77
2023-03-30T04:39:06.269Z,42.72
2023-03-30T04:43:16.760Z,37.07
2023-03-30T04:47:19.777Z,36.87
2023-03-30T04:51:25.625Z,38.23
2023-03-30T04:55:31.286Z,35.90
2023-03-30T04:59:35.982Z,44.67
2023-03-30T05:03:39.886Z,39.37
2023-03-30T05:07:44.058Z,33.17
2023-03-30T05:11:47.079Z,33.97
2023-03-30T05:15:58.443Z,39.42
2023-03-30T05:20:02.273Z,34.35
2023-03-30T05:24:06.947Z,31.83
2023-03-30T05:28:14.233Z,28.17
2023-03-30T05:32:18.590Z,26.50
2023-03-30T05:36:28.490Z,25.38
2023-03-30T05:40:31.777Z,18.75
2023-03-30T05:44:35.611Z,20.10
2023-03-30T05:48:40.175Z,11.15
2023-03-30T05:52:43.548Z,14.48
2023-03-30T05:56:46.664Z,12.85
2023-03-30T06:00:54.284Z,15.27
2023-03-30T06:05:01.763Z,17.42
2023-03-30T06:09:06.646Z,19.05
2023-03-30T06:13:16.941Z,24.42
2023-03-30T06:17:33.787Z,19.80
2023-03-30T06:21:42.271Z,20.60
2023-03-30T06:25:52.871Z,15.13
2023-03-30T06:29:58.754Z,19.63
2023-03-30T06:34:02.326Z,25.77
2023-03-30T06:38:07.647Z,26.50
2023-03-30T06:42:15.067Z,26.58
2023-03-30T06:46:18.499Z,12.27
2023-03-30T06:50:21.788Z,24.83
2023-03-30T06:54:28.398Z,24.23
2023-03-30T06:58:32.194Z,27.13
2023-03-30T07:02:35.205Z,33.63
2023-03-30T07:06:40.611Z,30.33
2023-03-30T07:10:45.053Z,37.28
2023-03-30T07:14:55.533Z,29.98
2023-03-30T07:19:03.961Z,31.33
2023-03-30T07:23:07.385Z,41.03
2023-03-30T07:27:14.103Z,37.40
2023-03-30T07:31:18.431Z,30.63
2023-03-30T07:35:23.686Z,31.38
2023-03-30T07:39:26.894Z,32.15
2023-03-30T07:43:32.624Z,35.97
2023-03-30T07:47:38.028Z,42.00
2023-03-30T07:51:43.868Z,35.20
2023-03-30T07:55:46.915Z,28.17
2023-03-30T07:59:51.660Z,31.00
2023-03-30T08:03:55.791Z,63.22
2023-03-30T08:08:01.883Z,30.90
2023-03-30T08:12:14.121Z,35.08
2023-03-30T08:16:20.182Z,29.02
2023-03-30T08:20:23.323Z,39.85
2023-03-30T08:24:29.253Z,34.30
2023-03-30T08:28:32.248Z,33.33
2023-03-30T08:32:36.701Z,42.92
2023-03-30T08:36:41.880Z,41.63
2023-03-30T08:40:45.536Z,47.85
2023-03-30T08:44:56.242Z,44.63
2023-03-30T08:49:06.516Z,39.70
2023-03-30T08:53:14.775Z,46.17
2023-03-30T08:57:30.008Z,39.67
2023-03-30T09:01:43.759Z,38.63
2023-03-30T09:05:53.980Z,31.55
2023-03-30T09:10:01.673Z,29.38
2023-03-30T09:14:07.355Z,23.70
2023-03-30T09:18:16.752Z,25.25
2023-03-30T09:22:22.103Z,26.70
2023-03-30T09:26:35.054Z,27.83
2023-03-30T09:30:42.146Z,31.10
2023-03-30T09:34:48.221Z,31.08
2023-03-30T09:38:54.135Z,25.17
2023-03-30T09:43:09.112Z,33.00
2023-03-30T09:47:24.028Z,32.97
2023-03-30T09:51:31.274Z,34.53
2023-03-30T09:55:39.243Z,27.00
2023-03-30T09:59:45.676Z,24.98
2023-03-30T10:04:11.815Z,23.60
2023-03-30T10:08:25.044Z,24.50
2023-03-30T10:12:31.605Z,27.42
2023-03-30T10:16:42.389Z,26.67
2023-03-30T10:20:53.223Z,29.10
2023-03-30T10:25:00.837Z,26.73
2023-03-30T10:29:11.033Z,28.25
2023-03-30T10:33:14.221Z,38.00
2023-03-30T10:37:21.271Z,32.38
2023-03-30T10:41:25.433Z,32.22
2023-03-30T10:45:36.190Z,32.83
2023-03-30T10:49:49.965Z,32.92
2023-03-30T10:54:06.002Z,64.25
2023-03-30T10:58:19.720Z,23.60
2023-03-30T11:02:30.431Z,22.45
2023-03-30T11:06:41.117Z,24.80
2023-03-30T11:10:49.036Z,22.35
2023-03-30T11:14:57.711Z,20.17
2023-03-30T11:19:08.320Z,24.58
2023-03-30T11:23:25.437Z,27.55
2023-03-30T11:27:31.713Z,32.05
2023-03-30T11:31:48.348Z,28.35
2023-03-30T11:35:59.246Z,33.75
2023-03-30T11:40:17.779Z,40.85
2023-03-30T11:44:22.829Z,26.58
2023-03-30T11:49:00.224Z,31.05
2023-03-30T11:53:29.470Z,29.80
2023-03-30T11:57:39.950Z,26.90
2023-03-30T12:01:55.917Z,32.00
2023-03-30T12:06:25.059Z,24.13
2023-03-30T12:10:44.192Z,23.15
2023-03-30T12:15:02.435Z,18.05
2023-03-30T12:19:13.033Z,22.38
2023-03-30T12:23:30.594Z,22.60
2023-03-30T12:27:38.843Z,21.80
2023-03-30T12:32:23.204Z,22.38
2023-03-30T12:36:38.413Z,17.23
2023-03-30T12:40:47.432Z,12.00
2023-03-30T12:45:03.028Z,9.82
2023-03-30T12:49:18.051Z,16.20
2023-03-30T12:53:39.726Z,18.13
2023-03-30T12:58:01.511Z,20.50
2023-03-30T13:02:55.191Z,16.80
2023-03-30T13:07:03.351Z,17.27
2023-03-30T13:11:14.198Z,26.42
2023-03-30T13:15:47.825Z,22.23
2023-03-30T13:20:28.199Z,15.13
2023-03-30T13:24:46.562Z,15.45
2023-03-30T13:29:11.483Z,18.35
2023-03-30T13:33:20.616Z,18.70
2023-03-30T13:37:36.655Z,12.98
2023-03-30T13:41:51.807Z,12.38
2023-03-30T13:46:15.572Z,23.25
2023-03-30T13:50:26.538Z,14.57
2023-03-30T13:54:35.478Z,17.55
2023-03-30T13:58:44.264Z,65.70
2023-03-30T14:02:49.690Z,51.38
2023-03-30T14:06:54.818Z,16.02
2023-03-30T14:11:00.888Z,29.00
2023-03-30T14:15:17.597Z,20.55
2023-03-30T14:19:24.968Z,22.88
2023-03-30T14:23:35.325Z,10.85
2023-03-30T14:27:43.141Z,14.77
2023-03-30T14:32:04.509Z,13.13
2023-03-30T14:36:12.925Z,10.38
2023-03-30T14:40:19.929Z,9.27
2023-03-30T14:44:25.065Z,7.55
2023-03-30T14:48:32.161Z,4.63
2023-03-30T14:52:41.124Z,11.60
2023-03-30T14:56:46.413Z,7.55
2023-03-30T15:00:49.579Z,5.30
2023-03-30T15:04:57.831Z,5.20
2023-03-30T15:09:02.883Z,7.78
2023-03-30T15:13:13.631Z,9.07
2023-03-30T15:17:24.438Z,3.58
2023-03-30T15:21:30.384Z,4.95
2023-03-30T15:25:35.655Z,8.27
2023-03-30T15:29:41.092Z,5.18
2023-03-30T15:33:50.790Z,8.50
2023-03-30T15:37:58.647Z,6.53
2023-03-30T15:42:05.758Z,7.03
2023-03-30T15:46:14.244Z,6.32
2023-03-30T15:50:19.113Z,5.88
2023-03-30T15:54:38.696Z,9.05
2023-03-30T15:58:43.987Z,5.32
2023-03-30T16:02:49.369Z,7.18
2023-03-30T16:06:58.889Z,9.95
2023-03-30T16:11:06.987Z,11.90
2023-03-30T16:15:14.089Z,13.05
2023-03-30T16:19:24.642Z,11.35
2023-03-30T16:23:27.944Z,9.63
2023-03-30T16:27:38.894Z,10.75
2023-03-30T16:31:45.020Z,8.60
2023-03-30T16:35:48.073Z,10.95
2023-03-30T16:39:51.493Z,10.00
2023-03-30T16:43:56.061Z,7.47
2023-03-30T16:47:59.413Z,7.38
2023-03-30T16:52:03.068Z,7.75
2023-03-30T16:56:07.914Z,7.82
2023-03-30T17:00:30.401Z,9.73
2023-03-30T17:04:35.587Z,5.18
2023-03-30T17:08:40.944Z,6.63
2023-03-30T17:12:47.085Z,7.93
2023-03-30T17:16:51.695Z,4.40
2023-03-30T17:21:00.382Z,4.15
2023-03-30T17:25:03.397Z,4.90
2023-03-30T17:29:08.816Z,8.07
2023-03-30T17:33:13.169Z,3.63
2023-03-30T17:37:16.570Z,8.88
2023-03-30T17:41:20.801Z,2.85
2023-03-30T17:45:29.414Z,3.53
2023-03-30T17:49:34.042Z,4.43
2023-03-30T17:53:39.014Z,4.68
2023-03-30T17:57:45.733Z,3.97
2023-03-30T18:01:48.988Z,3.80
2023-03-30T18:05:55.241Z,1.92
2023-03-30T18:09:59.459Z,5.43
2023-03-30T18:14:05.935Z,36.50
2023-03-30T18:18:13.818Z,9.73
2023-03-30T18:22:21.023Z,14.82
2023-03-30T18:26:26.125Z,11.05
2023-03-30T18:30:32.070Z,7.88
2023-03-30T18:34:38.073Z,9.30
2023-03-30T18:38:45.253Z,10.07
2023-03-30T18:42:51.306Z,4.60
2023-03-30T18:46:56.760Z,7.60
2023-03-30T18:51:00.808Z,7.20
2023-03-30T18:55:07.967Z,3.92
2023-03-30T18:59:11.318Z,5.85
2023-03-30T19:03:15.662Z,7.68
2023-03-30T19:07:24.169Z,7.15
2023-03-30T19:11:28.990Z,14.65
2023-03-30T19:15:39.558Z,4.35
2023-03-30T19:19:44.177Z,21.50
2023-03-30T19:23:47.512Z,5.05
2023-03-30T19:28:02.685Z,7.85
2023-03-30T19:32:10.152Z,7.28
2023-03-30T19:36:17.116Z,5.03
2023-03-30T19:40:25.148Z,6.30
2023-03-30T19:44:32.322Z,4.55
2023-03-30T19:48:35.474Z,3.53
2023-03-30T19:52:41.054Z,5.00
2023-03-30T19:56:44.552Z,4.88
2023-03-30T20:00:51.374Z,11.50
2023-03-30T20:04:58.544Z,8.52
2023-03-30T20:09:08.210Z,9.15
2023-03-30T20:13:11.517Z,6.03
2023-03-30T20:17:18.426Z,7.90
2023-03-30T20:21:22.726Z,6.23
2023-03-30T20:25:26.099Z,6.85
2023-03-30T20:29:32.419Z,12.23
2023-03-30T20:33:38.788Z,8.37
2023-03-30T20:37:41.892Z,6.93
2023-03-30T20:41:45.580Z,6.33
2023-03-30T20:45:57.763Z,13.57
2023-03-30T20:50:04.130Z,5.13
2023-03-30T20:54:10.463Z,11.15
2023-03-30T20:58:16.814Z,9.67
2023-03-30T21:02:20.543Z,14.05
2023-03-30T21:06:27.528Z,8.95
2023-03-30T21:10:36.298Z,7.60
2023-03-30T21:14:39.559Z,4.50
2023-03-30T21:18:44.636Z,11.60
2023-03-30T21:22:51.589Z,11.07
2023-03-30T21:26:55.628Z,5.97
2023-03-30T21:31:01.081Z,7.03
2023-03-30T21:35:04.227Z,8.50
2023-03-30T21:39:08.626Z,11.93
2023-03-30T21:43:11.722Z,9.00
2023-03-30T21:47:17.565Z,7.20
2023-03-30T21:51:22.741Z,8.00
2023-03-30T21:55:27.190Z,3.63
2023-03-30T21:59:34.808Z,5.87
2023-03-30T22:03:38.172Z,8.82
2023-03-30T22:07:42.420Z,11.60
2023-03-30T22:11:51.288Z,7.13
2023-03-30T22:16:01.933Z,7.95
2023-03-30T22:20:07.038Z,6.93
2023-03-30T22:24:13.172Z,9.13
2023-03-30T22:28:18.079Z,7.60
2023-03-30T22:32:23.632Z,10.33
2023-03-30T22:36:31.478Z,10.00
2023-03-30T22:40:35.917Z,10.57
2023-03-30T22:44:41.274Z,8.18
2023-03-30T22:48:44.281Z,6.77
2023-03-30T22:52:47.477Z,10.23
2023-03-30T22:56:54.347Z,9.80
2023-03-30T23:01:07.113Z,14.37
2023-03-30T23:05:14.164Z,8.80
2023-03-30T23:09:17.807Z,5.43
2023-03-30T23:13:22.385Z,6.70
2023-03-30T23:17:27.564Z,8.27
2023-03-30T23:21:34.632Z,4.40
2023-03-30T23:25:38.091Z,10.03
2023-03-30T23:29:43.007Z,9.47
2023-03-30T23:33:47.571Z,6.53
2023-03-30T23:37:52.788Z,7.83
2023-03-30T23:41:56.642Z,9.07
2023-03-30T23:45:59.840Z,4.97
2023-03-30T23:50:04.654Z,13.83
2023-03-30T23:54:08.011Z,7.73
2023-03-30T23:58:12.332Z,10.40
